createdAt,value
2023-07-23T00:00:07.237Z,100658.31
2023-07-23T00:01:09.184Z,100647.72
2023-07-23T00:02:11.042Z,100659.13
2023-07-23T00:03:12.912Z,100653.81
2023-07-23T00:04:14.719Z,100653.03
2023-07-23T00:05:16.627Z,100644.28
2023-07-23T00:06:18.532Z,100647.72
2023-07-23T00:07:20.314Z,100652.78
2023-07-23T00:08:22.133Z,100646.69
2023-07-23T00:09:24.146Z,100645.88
2023-07-23T00:10:27.675Z,100644.84
2023-07-23T00:11:30.774Z,100640.56
2023-07-23T00:12:32.924Z,100640.56
2023-07-23T00:13:34.952Z,100640.34
2023-07-23T00:14:36.797Z,100640.34
2023-07-23T00:15:38.881Z,100637.69
2023-07-23T00:16:40.746Z,100638.25
2023-07-23T00:17:42.830Z,100632.41
2023-07-23T00:18:44.657Z,100634.25
2023-07-23T00:19:46.829Z,100631.81
2023-07-23T00:20:48.750Z,100634.47
2023-07-23T00:21:51.332Z,100630.50
2023-07-23T00:22:53.238Z,100624.41
2023-07-23T00:23:55.002Z,100626.47
2023-07-23T00:24:58.221Z,100627.53
2023-07-23T00:26:00.062Z,100625.66
2023-07-23T00:27:01.898Z,100619.56
2023-07-23T00:28:03.932Z,100620.63
2023-07-23T00:29:05.698Z,100623.28
2023-07-23T00:30:08.320Z,100617.97
2023-07-23T00:31:10.130Z,100616.38
2023-07-23T00:32:11.949Z,100613.72
2023-07-23T00:33:14.320Z,100608.69
2023-07-23T00:34:16.102Z,100612.13
2023-07-23T00:35:17.962Z,100613.19
2023-07-23T00:36:19.752Z,100617.44
2023-07-23T00:37:21.629Z,100611.34
2023-07-23T00:38:23.432Z,100606.28
2023-07-23T00:39:25.802Z,100605.47
2023-07-23T00:40:27.702Z,100604.94
2023-07-23T00:41:29.746Z,100613.94
2023-07-23T00:42:32.158Z,100604.13
2023-07-23T00:43:34.006Z,100602.78
2023-07-23T00:44:35.905Z,100603.81
2023-07-23T00:45:38.139Z,100606.47
2023-07-23T00:46:40.074Z,100608.31
2023-07-23T00:47:44.079Z,100600.38
2023-07-23T00:48:46.094Z,100598.53
2023-07-23T00:49:47.988Z,100590.84
2023-07-23T00:50:50.010Z,100592.69
2023-07-23T00:51:53.897Z,100599.03
2023-07-23T00:52:57.453Z,100594.00
2023-07-23T00:54:00.204Z,100592.38
2023-07-23T00:55:03.661Z,100584.69
2023-07-23T00:56:06.374Z,100587.53
2023-07-23T00:57:10.537Z,100595.50
2023-07-23T00:58:12.437Z,100588.59
2023-07-23T00:59:14.663Z,100587.00
2023-07-23T01:00:16.484Z,100580.34
2023-07-23T01:01:19.473Z,100580.91
2023-07-23T01:02:21.360Z,100585.38
2023-07-23T01:03:24.357Z,100578.25
2023-07-23T01:04:27.681Z,100579.06
2023-07-23T01:05:30.948Z,100578.00
2023-07-23T01:06:40.374Z,100578.81
2023-07-23T01:07:45.358Z,100576.16
2023-07-23T01:08:49.203Z,100575.34
2023-07-23T01:09:52.348Z,100570.06
2023-07-23T01:10:55.078Z,100575.34
2023-07-23T01:11:58.986Z,100578.81
2023-07-23T01:13:01.226Z,100569.25
2023-07-23T01:14:06.526Z,100571.91
2023-07-23T01:15:09.538Z,100570.06
2023-07-23T01:16:11.752Z,100563.19
2023-07-23T01:17:18.982Z,100571.91
2023-07-23T01:18:21.750Z,100563.19
2023-07-23T01:19:27.317Z,100557.09
2023-07-23T01:20:29.345Z,100562.38
2023-07-23T01:21:31.155Z,100565.03
2023-07-23T01:22:38.341Z,100566.84
2023-07-23T01:23:40.215Z,100561.56
2023-07-23T01:24:42.165Z,100561.00
2023-07-23T01:25:44.348Z,100556.75
2023-07-23T01:26:46.169Z,100559.66
2023-07-23T01:27:47.989Z,100563.38
2023-07-23T01:28:49.810Z,100563.38
2023-07-23T01:29:51.661Z,100560.94
2023-07-23T01:30:55.980Z,100562.00
2023-07-23T01:31:57.824Z,100564.09
2023-07-23T01:33:00.633Z,100564.91
2023-07-23T01:34:06.109Z,100562.72
2023-07-23T01:35:15.287Z,100563.78
2023-07-23T01:36:18.355Z,100559.78
2023-07-23T01:37:21.774Z,100568.78
2023-07-23T01:38:25.146Z,100570.84
2023-07-23T01:39:26.932Z,100571.13
2023-07-23T01:40:28.977Z,100572.16
2023-07-23T01:41:31.230Z,100581.16
2023-07-23T01:42:34.277Z,100582.69
2023-07-23T01:43:37.383Z,100576.59
2023-07-23T01:44:39.604Z,100582.34
2023-07-23T01:45:48.322Z,100587.09
2023-07-23T01:46:51.562Z,100593.13
2023-07-23T01:47:53.457Z,100593.31
2023-07-23T01:48:55.381Z,100598.31
2023-07-23T01:49:57.422Z,100605.66
2023-07-23T01:50:59.233Z,100597.91
2023-07-23T01:52:00.976Z,100606.88
2023-07-23T01:53:02.812Z,100610.25
2023-07-23T01:54:04.582Z,100616.84
2023-07-23T01:55:08.075Z,100612.81
2023-07-23T01:56:10.019Z,100610.13
2023-07-23T01:57:11.885Z,100615.41
2023-07-23T01:58:13.869Z,100621.16
2023-07-23T01:59:15.862Z,100625.56
2023-07-23T02:00:17.970Z,100632.97
2023-07-23T02:01:19.842Z,100629.75
2023-07-23T02:02:21.858Z,100624.94
2023-07-23T02:03:23.820Z,100633.91
2023-07-23T02:04:26.348Z,100637.78
2023-07-23T02:05:28.237Z,100633.00
2023-07-23T02:06:30.139Z,100628.75
2023-07-23T02:07:32.021Z,100630.81
2023-07-23T02:08:33.868Z,100629.22
2023-07-23T02:09:35.707Z,100631.88
2023-07-23T02:10:37.475Z,100641.66
2023-07-23T02:11:39.378Z,100637.66
2023-07-23T02:12:41.460Z,100631.56
2023-07-23T02:13:43.304Z,100633.97
2023-07-23T02:14:46.414Z,100636.84
2023-07-23T02:15:48.210Z,100639.50
2023-07-23T02:16:49.961Z,100642.13
2023-07-23T02:17:51.848Z,100642.94
2023-07-23T02:18:53.672Z,100637.66
2023-07-23T02:19:55.859Z,100643.16
2023-07-23T02:20:57.712Z,100639.16
2023-07-23T02:21:59.573Z,100635.16
2023-07-23T02:23:01.394Z,100644.69
2023-07-23T02:24:03.868Z,100638.81
2023-07-23T02:25:06.258Z,100645.94
2023-07-23T02:26:08.176Z,100642.75
2023-07-23T02:27:10.250Z,100639.56
2023-07-23T02:28:12.384Z,100639.31
2023-07-23T02:29:14.194Z,100641.16
2023-07-23T02:30:15.974Z,100646.69
2023-07-23T02:31:17.798Z,100642.41
2023-07-23T02:32:19.733Z,100650.34
2023-07-23T02:33:21.960Z,100641.06
2023-07-23T02:34:23.856Z,100650.84
2023-07-23T02:35:25.684Z,100643.16
2023-07-23T02:36:27.594Z,100645.81
2023-07-23T02:37:29.463Z,100650.28
2023-07-23T02:38:31.248Z,100640.72
2023-07-23T02:39:33.067Z,100638.34
2023-07-23T02:40:35.587Z,100637.53
2023-07-23T02:41:37.544Z,100632.25
2023-07-23T02:42:39.383Z,100633.28
2023-07-23T02:43:41.169Z,100633.28
2023-07-23T02:44:43.012Z,100631.69
2023-07-23T02:45:44.973Z,100628.25
2023-07-23T02:46:46.846Z,100629.28
2023-07-23T02:47:48.704Z,100630.91
2023-07-23T02:48:50.655Z,100638.03
2023-07-23T02:49:52.455Z,100642.50
2023-07-23T02:50:54.461Z,100640.06
2023-07-23T02:51:56.648Z,100640.88
2023-07-23T02:52:58.544Z,100639.28
2023-07-23T02:54:00.435Z,100640.31
2023-07-23T02:55:02.273Z,100642.16
2023-07-23T02:56:04.514Z,100639.53
2023-07-23T02:57:06.336Z,100638.97
2023-07-23T02:58:08.243Z,100644.25
2023-07-23T02:59:10.033Z,100640.00
2023-07-23T03:00:12.916Z,100637.59
2023-07-23T03:01:14.922Z,100644.47
2023-07-23T03:02:16.777Z,100643.13
2023-07-23T03:03:19.727Z,100642.31
2023-07-23T03:04:27.371Z,100649.44
2023-07-23T03:05:29.445Z,100649.69
2023-07-23T03:06:31.221Z,100648.84
2023-07-23T03:07:35.575Z,100648.84
2023-07-23T03:08:37.367Z,100648.31
2023-07-23T03:09:39.196Z,100641.97
2023-07-23T03:10:42.501Z,100648.31
2023-07-23T03:11:44.316Z,100638.78
2023-07-23T03:12:46.212Z,100639.81
2023-07-23T03:13:48.108Z,100640.88
2023-07-23T03:14:50.508Z,100638.22
2023-07-23T03:15:52.323Z,100636.59
2023-07-23T03:16:54.083Z,100637.63
2023-07-23T03:17:55.914Z,100637.63
2023-07-23T03:18:57.744Z,100643.16
2023-07-23T03:19:59.492Z,100645.81
2023-07-23T03:21:01.358Z,100641.81
2023-07-23T03:22:03.382Z,100640.41
2023-07-23T03:23:05.232Z,100643.06
2023-07-23T03:24:08.142Z,100638.81
2023-07-23T03:25:10.069Z,100633.78
2023-07-23T03:26:11.888Z,100630.56
2023-07-23T03:27:13.965Z,100632.41
2023-07-23T03:28:16.722Z,100633.19
2023-07-23T03:29:18.563Z,100635.28
2023-07-23T03:30:20.444Z,100631.03
2023-07-23T03:31:22.432Z,100632.09
2023-07-23T03:32:25.056Z,100633.69
2023-07-23T03:33:28.295Z,100638.97
2023-07-23T03:34:32.170Z,100634.47
2023-07-23T03:35:33.972Z,100632.88
2023-07-23T03:36:35.763Z,100631.03
2023-07-23T03:37:37.707Z,100630.50
2023-07-23T03:38:39.509Z,100641.59
2023-07-23T03:39:41.351Z,100631.28
2023-07-23T03:40:43.292Z,100635.78
2023-07-23T03:41:48.845Z,100635.19
2023-07-23T03:42:50.615Z,100637.63
2023-07-23T03:43:52.493Z,100644.50
2023-07-23T03:44:54.522Z,100645.28
2023-07-23T03:45:56.507Z,100646.09
2023-07-23T03:47:16.005Z,100641.84
2023-07-23T03:48:17.932Z,100647.13
2023-07-23T03:49:19.762Z,100646.34
2023-07-23T03:50:21.624Z,100642.66
2023-07-23T03:51:23.469Z,100649.53
2023-07-23T03:52:25.232Z,100641.59
2023-07-23T03:53:27.065Z,100640.81
2023-07-23T03:54:28.910Z,100645.53
2023-07-23T03:55:30.872Z,100648.19
2023-07-23T03:56:32.719Z,100646.78
2023-07-23T03:57:37.341Z,100635.66
2023-07-23T03:58:40.173Z,100642.44
2023-07-23T03:59:46.175Z,100642.09
2023-07-23T04:00:48.006Z,100640.75
2023-07-23T04:01:49.853Z,100633.31
2023-07-23T04:02:51.745Z,100645.66
2023-07-23T04:03:53.631Z,100639.84
2023-07-23T04:04:55.586Z,100642.47
2023-07-23T04:05:58.139Z,100639.84
2023-07-23T04:07:00.120Z,100639.28
2023-07-23T04:08:03.482Z,100635.84
2023-07-23T04:09:05.476Z,100635.03
2023-07-23T04:10:07.577Z,100636.03
2023-07-23T04:11:09.432Z,100642.16
2023-07-23T04:12:12.495Z,100636.88
2023-07-23T04:13:14.511Z,100641.91
2023-07-23T04:14:16.493Z,100637.09
2023-07-23T04:15:18.545Z,100638.13
2023-07-23T04:16:20.467Z,100634.09
2023-07-23T04:17:22.360Z,100633.09
2023-07-23T04:18:24.164Z,100636.75
2023-07-23T04:19:25.972Z,100635.72
2023-07-23T04:20:27.718Z,100635.94
2023-07-23T04:21:29.932Z,100641.81
2023-07-23T04:22:32.079Z,100633.88
2023-07-23T04:23:33.853Z,100633.66
2023-07-23T04:24:35.659Z,100631.81
2023-07-23T04:25:37.605Z,100636.88
2023-07-23T04:26:39.578Z,100635.84
2023-07-23T04:27:41.537Z,100626.88
2023-07-23T04:28:43.746Z,100627.69
2023-07-23T04:29:45.628Z,100627.44
2023-07-23T04:30:47.427Z,100628.22
2023-07-23T04:31:49.329Z,100631.91
2023-07-23T04:32:51.208Z,100622.94
2023-07-23T04:33:54.590Z,100628.22
2023-07-23T04:34:56.389Z,100631.47
2023-07-23T04:35:58.166Z,100630.66
2023-07-23T04:37:00.012Z,100636.16
2023-07-23T04:38:01.765Z,100624.78
2023-07-23T04:39:04.633Z,100629.03
2023-07-23T04:40:09.386Z,100619.50
2023-07-23T04:41:12.705Z,100627.69
2023-07-23T04:42:14.474Z,100628.13
2023-07-23T04:43:16.385Z,100624.47
2023-07-23T04:44:18.181Z,100626.78
2023-07-23T04:45:19.954Z,100621.94
2023-07-23T04:46:22.125Z,100623.44
2023-07-23T04:47:23.959Z,100620.00
2023-07-23T04:48:26.482Z,100625.50
2023-07-23T04:49:28.269Z,100618.41
2023-07-23T04:50:30.109Z,100620.22
2023-07-23T04:51:32.199Z,100618.41
2023-07-23T04:52:34.023Z,100624.47
2023-07-23T04:53:36.708Z,100618.94
2023-07-23T04:54:38.532Z,100616.56
2023-07-23T04:55:40.342Z,100625.03
2023-07-23T04:56:42.133Z,100624.78
2023-07-23T04:57:43.880Z,100631.66
2023-07-23T04:58:45.672Z,100636.75
2023-07-23T04:59:47.589Z,100644.88
2023-07-23T05:00:50.115Z,100639.81
2023-07-23T05:01:51.960Z,100642.72
2023-07-23T05:02:54.062Z,100645.34
2023-07-23T05:03:56.023Z,100644.00
2023-07-23T05:04:57.870Z,100638.13
2023-07-23T05:06:05.454Z,100639.72
2023-07-23T05:07:07.359Z,100647.06
2023-07-23T05:08:09.921Z,100644.44
2023-07-23T05:09:11.774Z,100643.41
2023-07-23T05:10:13.616Z,100641.56
2023-07-23T05:11:15.498Z,100636.06
2023-07-23T05:12:17.339Z,100641.09
2023-07-23T05:13:19.233Z,100641.09
2023-07-23T05:14:21.039Z,100638.47
2023-07-23T05:15:22.864Z,100645.34
2023-07-23T05:16:24.736Z,100646.94
2023-07-23T05:17:26.556Z,100646.94
2023-07-23T05:18:28.439Z,100644.31
2023-07-23T05:19:30.270Z,100644.31
2023-07-23T05:20:32.288Z,100653.81
2023-07-23T05:21:37.192Z,100643.75
2023-07-23T05:22:41.209Z,100640.31
2023-07-23T05:23:44.602Z,100642.16
2023-07-23T05:24:46.834Z,100638.22
2023-07-23T05:25:48.968Z,100630.88
2023-07-23T05:26:50.841Z,100630.88
2023-07-23T05:27:52.856Z,100627.22
2023-07-23T05:28:54.678Z,100623.53
2023-07-23T05:29:56.830Z,100622.53
2023-07-23T05:31:00.599Z,100621.50
2023-07-23T05:32:02.904Z,100625.47
2023-07-23T05:33:06.768Z,100632.41
2023-07-23T05:34:10.225Z,100633.75
2023-07-23T05:35:14.172Z,100631.47
2023-07-23T05:36:16.034Z,100628.81
2023-07-23T05:37:17.906Z,100629.13
2023-07-23T05:38:20.244Z,100623.06
2023-07-23T05:39:22.125Z,100631.53
2023-07-23T05:40:24.019Z,100629.72
2023-07-23T05:41:26.039Z,100627.09
2023-07-23T05:42:27.916Z,100629.94
2023-07-23T05:43:30.859Z,100634.19
2023-07-23T05:44:33.577Z,100630.53
2023-07-23T05:45:36.041Z,100627.41
2023-07-23T05:46:37.892Z,100624.53
2023-07-23T05:47:39.786Z,100626.16
2023-07-23T05:48:42.265Z,100633.34
2023-07-23T05:49:44.102Z,100627.84
2023-07-23T05:50:45.924Z,100636.09
2023-07-23T05:51:48.596Z,100641.94
2023-07-23T05:52:50.575Z,100631.16
2023-07-23T05:53:52.449Z,100626.97
2023-07-23T05:54:54.241Z,100625.97
2023-07-23T05:55:56.025Z,100623.88
2023-07-23T05:56:57.842Z,100623.38
2023-07-23T05:57:59.735Z,100621.09
2023-07-23T05:59:01.603Z,100625.66
2023-07-23T06:00:04.862Z,100627.59
2023-07-23T06:01:06.782Z,100623.44
2023-07-23T06:02:08.653Z,100630.91
2023-07-23T06:03:10.559Z,100627.75
2023-07-23T06:04:12.771Z,100632.81
2023-07-23T06:05:14.808Z,100620.72
2023-07-23T06:06:16.564Z,100630.03
2023-07-23T06:07:18.381Z,100630.09
2023-07-23T06:08:20.220Z,100622.50
2023-07-23T06:09:22.067Z,100616.50
2023-07-23T06:10:23.921Z,100623.72
2023-07-23T06:11:25.767Z,100623.22
2023-07-23T06:12:28.643Z,100620.69
2023-07-23T06:13:30.620Z,100615.50
2023-07-23T06:14:32.624Z,100618.78
2023-07-23T06:15:34.765Z,100610.91
2023-07-23T06:16:36.707Z,100609.69
2023-07-23T06:17:38.715Z,100606.63
2023-07-23T06:18:40.575Z,100610.47
2023-07-23T06:19:42.356Z,100605.81
2023-07-23T06:20:44.288Z,100611.47
2023-07-23T06:21:46.142Z,100612.91
2023-07-23T06:22:47.945Z,100614.81
2023-07-23T06:23:49.809Z,100606.88
2023-07-23T06:24:51.687Z,100609.59
2023-07-23T06:25:58.235Z,100608.06
2023-07-23T06:27:00.039Z,100608.13
2023-07-23T06:28:01.860Z,100605.75
2023-07-23T06:29:03.720Z,100606.34
2023-07-23T06:30:07.527Z,100598.41
2023-07-23T06:31:09.400Z,100603.44
2023-07-23T06:32:12.490Z,100595.25
2023-07-23T06:33:14.303Z,100594.22
2023-07-23T06:34:16.230Z,100599.28
2023-07-23T06:35:18.075Z,100590.28
2023-07-23T06:36:19.949Z,100587.38
2023-07-23T06:37:21.997Z,100596.91
2023-07-23T06:38:23.763Z,100594.78
2023-07-23T06:39:25.596Z,100594.22
2023-07-23T06:40:27.451Z,100595.50
2023-07-23T06:41:29.605Z,100593.09
2023-07-23T06:42:31.749Z,100586.22
2023-07-23T06:43:33.723Z,100590.44
2023-07-23T06:44:35.509Z,100588.03
2023-07-23T06:45:37.288Z,100585.38
2023-07-23T06:46:39.118Z,100585.38
2023-07-23T06:47:41.034Z,100582.50
2023-07-23T06:48:42.940Z,100586.03
2023-07-23T06:49:44.743Z,100583.44
2023-07-23T06:50:48.337Z,100580.03
2023-07-23T06:51:50.194Z,100584.66
2023-07-23T06:52:51.956Z,100584.00
2023-07-23T06:53:53.741Z,100574.91
2023-07-23T06:54:56.520Z,100580.34
2023-07-23T06:56:09.404Z,100572.00
2023-07-23T06:57:11.418Z,100565.75
2023-07-23T06:58:13.285Z,100575.16
2023-07-23T06:59:15.146Z,100575.53
2023-07-23T07:00:17.365Z,100574.34
2023-07-23T07:01:22.139Z,100568.66
2023-07-23T07:02:24.056Z,100580.16
2023-07-23T07:03:26.623Z,100581.53
2023-07-23T07:04:30.316Z,100583.41
2023-07-23T07:05:32.397Z,100583.66
2023-07-23T07:06:34.164Z,100589.47
2023-07-23T07:07:37.192Z,100579.84
2023-07-23T07:08:38.998Z,100589.16
2023-07-23T07:09:40.802Z,100582.19
2023-07-23T07:10:42.736Z,100576.84
2023-07-23T07:11:44.671Z,100585.34
2023-07-23T07:12:46.960Z,100586.63
2023-07-23T07:13:48.877Z,100578.00
2023-07-23T07:14:50.714Z,100574.66
2023-07-23T07:15:52.578Z,100581.75
2023-07-23T07:16:54.366Z,100579.84
2023-07-23T07:17:56.132Z,100576.66
2023-07-23T07:18:57.936Z,100578.53
2023-07-23T07:19:59.722Z,100573.47
2023-07-23T07:21:02.427Z,100574.56
2023-07-23T07:22:04.896Z,100571.63
2023-07-23T07:23:06.749Z,100566.34
2023-07-23T07:24:08.624Z,100564.28
2023-07-23T07:25:10.657Z,100562.75
2023-07-23T07:26:12.525Z,100566.81
2023-07-23T07:27:16.054Z,100568.00
2023-07-23T07:28:18.571Z,100564.09
2023-07-23T07:29:20.625Z,100568.94
2023-07-23T07:30:22.449Z,100561.50
2023-07-23T07:31:24.432Z,100565.22
2023-07-23T07:32:26.297Z,100569.50
2023-07-23T07:33:29.623Z,100571.38
2023-07-23T07:34:31.465Z,100574.56
2023-07-23T07:35:33.352Z,100567.16
2023-07-23T07:36:35.155Z,100574.63
2023-07-23T07:37:36.951Z,100573.81
2023-07-23T07:38:38.971Z,100569.56
2023-07-23T07:39:42.075Z,100568.78
2023-07-23T07:40:43.930Z,100570.13
2023-07-23T07:41:45.740Z,100575.44
2023-07-23T07:42:48.717Z,100571.97
2023-07-23T07:43:50.572Z,100568.78
2023-07-23T07:44:52.390Z,100560.78
2023-07-23T07:45:59.498Z,100562.94
2023-07-23T07:47:01.444Z,100571.69
2023-07-23T07:48:03.559Z,100566.13
2023-07-23T07:49:06.393Z,100565.03
2023-07-23T07:50:09.620Z,100570.88
2023-07-23T07:51:11.417Z,100579.91
2023-07-23T07:52:13.318Z,100571.16
2023-07-23T07:53:17.025Z,100558.63
2023-07-23T07:54:18.832Z,100565.00
2023-07-23T07:55:20.637Z,100565.78
2023-07-23T07:56:23.006Z,100566.34
2023-07-23T07:57:25.482Z,100562.59
2023-07-23T07:58:28.565Z,100560.44
2023-07-23T07:59:31.498Z,100549.56
2023-07-23T08:00:34.077Z,100546.63
2023-07-23T08:01:36.108Z,100551.13
2023-07-23T08:02:38.774Z,100546.88
2023-07-23T08:03:41.382Z,100548.47
2023-07-23T08:04:44.005Z,100540.47
2023-07-23T08:05:46.644Z,100534.63
2023-07-23T08:06:49.511Z,100536.47
2023-07-23T08:07:52.380Z,100533.75
2023-07-23T08:08:57.415Z,100536.66
2023-07-23T08:10:01.280Z,100544.59
2023-07-23T08:11:09.286Z,100538.19
2023-07-23T08:12:13.785Z,100536.31
2023-07-23T08:13:16.752Z,100534.19
2023-07-23T08:14:21.051Z,100538.41
2023-07-23T08:15:23.206Z,100534.16
2023-07-23T08:16:25.391Z,100536.28
2023-07-23T08:17:27.974Z,100537.34
2023-07-23T08:18:30.499Z,100541.03
2023-07-23T08:19:32.920Z,100534.94
2023-07-23T08:20:38.377Z,100538.94
2023-07-23T08:21:41.229Z,100537.88
2023-07-23T08:22:43.584Z,100535.75
2023-07-23T08:23:45.844Z,100541.06
2023-07-23T08:24:48.305Z,100532.88
2023-07-23T08:25:55.055Z,100534.47
2023-07-23T08:27:03.857Z,100535.53
2023-07-23T08:28:08.889Z,100535.25
2023-07-23T08:29:14.568Z,100529.94
2023-07-23T08:30:17.740Z,100533.41
2023-07-23T08:31:20.537Z,100537.38
2023-07-23T08:32:25.820Z,100528.13
2023-07-23T08:33:32.024Z,100523.88
2023-07-23T08:34:34.635Z,100532.66
2023-07-23T08:35:37.105Z,100534.53
2023-07-23T08:36:39.369Z,100530.31
2023-07-23T08:37:41.819Z,100533.22
2023-07-23T08:38:44.567Z,100528.50
2023-07-23T08:39:46.710Z,100530.63
2023-07-23T08:40:59.358Z,100530.91
2023-07-23T08:42:49.074Z,100527.72
2023-07-23T08:44:18.681Z,100532.50
2023-07-23T08:46:20.265Z,100526.13
2023-07-23T08:47:23.622Z,100531.47
2023-07-23T08:48:56.655Z,100531.47
2023-07-23T08:50:02.834Z,100527.75
2023-07-23T08:51:05.499Z,100534.13
2023-07-23T08:52:08.861Z,100534.91
2023-07-23T08:53:14.277Z,100523.22
2023-07-23T08:54:20.715Z,100530.13
2023-07-23T08:55:23.376Z,100525.38
2023-07-23T08:56:25.310Z,100535.47
2023-07-23T08:57:27.720Z,100533.31
2023-07-23T08:58:30.579Z,100524.06
2023-07-23T08:59:34.419Z,100522.44
2023-07-23T09:00:37.818Z,100526.75
2023-07-23T09:01:43.169Z,100524.84
2023-07-23T09:02:48.468Z,100524.63
2023-07-23T09:03:50.447Z,100521.16
2023-07-23T09:04:52.707Z,100520.09
2023-07-23T09:05:54.617Z,100514.81
2023-07-23T09:07:01.575Z,100517.19
2023-07-23T09:08:04.161Z,100515.06
2023-07-23T09:09:09.801Z,100520.59
2023-07-23T09:10:12.181Z,100521.09
2023-07-23T09:11:14.167Z,100513.06
2023-07-23T09:12:16.973Z,100512.25
2023-07-23T09:13:18.919Z,100515.91
2023-07-23T09:14:20.840Z,100507.59
2023-07-23T09:15:22.646Z,100503.00
2023-07-23T09:16:25.320Z,100511.19
2023-07-23T09:17:29.509Z,100502.91
2023-07-23T09:18:31.648Z,100503.66
2023-07-23T09:19:33.733Z,100506.03
2023-07-23T09:20:35.972Z,100502.56
2023-07-23T09:21:41.482Z,100506.31
2023-07-23T09:22:43.258Z,100506.09
2023-07-23T09:23:50.447Z,100509.00
2023-07-23T09:25:01.393Z,100506.13
2023-07-23T09:26:03.358Z,100508.53
2023-07-23T09:27:11.306Z,100510.16
2023-07-23T09:28:26.546Z,100505.09
2023-07-23T09:29:37.248Z,100510.16
2023-07-23T09:30:39.115Z,100512.78
2023-07-23T09:31:46.752Z,100504.75
2023-07-23T09:33:08.987Z,100513.25
2023-07-23T09:34:10.947Z,100505.19
2023-07-23T09:35:12.886Z,100497.94
2023-07-23T09:36:14.886Z,100499.72
2023-07-23T09:37:18.804Z,100503.59
2023-07-23T09:38:20.568Z,100495.53
2023-07-23T09:39:28.826Z,100489.84
2023-07-23T09:40:39.752Z,100488.44
2023-07-23T09:41:41.533Z,100483.34
2023-07-23T09:42:44.884Z,100480.63
2023-07-23T09:43:46.870Z,100478.13
2023-07-23T09:44:48.712Z,100478.00
2023-07-23T09:45:52.089Z,100478.69
2023-07-23T09:46:54.271Z,100476.75
2023-07-23T09:48:05.966Z,100475.63
2023-07-23T09:49:14.448Z,100480.25
2023-07-23T09:50:18.946Z,100471.28
2023-07-23T09:51:23.114Z,100467.19
2023-07-23T09:52:36.106Z,100474.59
2023-07-23T09:53:47.689Z,100469.31
2023-07-23T09:54:50.541Z,100466.50
2023-07-23T09:55:53.663Z,100465.31
2023-07-23T09:56:56.957Z,100468.41
2023-07-23T09:58:03.348Z,100459.72
2023-07-23T09:59:05.704Z,100462.53
2023-07-23T10:00:08.865Z,100453.34
2023-07-23T10:01:11.696Z,100454.53
2023-07-23T10:02:16.464Z,100450.84
2023-07-23T10:03:20.092Z,100442.91
2023-07-23T10:04:24.548Z,100455.28
2023-07-23T10:05:27.739Z,100448.31
2023-07-23T10:06:30.032Z,100454.50
2023-07-23T10:07:33.972Z,100448.63
2023-07-23T10:08:37.208Z,100442.47
2023-07-23T10:09:39.592Z,100438.22
2023-07-23T10:10:41.430Z,100445.44
2023-07-23T10:11:43.397Z,100440.09
2023-07-23T10:12:45.236Z,100441.38
2023-07-23T10:13:52.899Z,100439.81
2023-07-23T10:14:54.813Z,100439.38
2023-07-23T10:15:58.001Z,100444.03
2023-07-23T10:17:02.062Z,100440.06
2023-07-23T10:18:05.767Z,100440.84
2023-07-23T10:19:10.264Z,100430.97
2023-07-23T10:20:15.983Z,100423.44
2023-07-23T10:21:22.058Z,100430.09
2023-07-23T10:22:24.731Z,100426.03
2023-07-23T10:23:28.632Z,100424.16
2023-07-23T10:24:41.611Z,100423.06
2023-07-23T10:25:43.707Z,100419.59
2023-07-23T10:26:50.139Z,100421.47
2023-07-23T10:28:04.949Z,100422.25
2023-07-23T10:29:13.198Z,100414.72
2023-07-23T10:30:21.051Z,100418.22
2023-07-23T10:31:30.013Z,100423.06
2023-07-23T10:32:32.792Z,100416.13
2023-07-23T10:33:34.975Z,100423.13
2023-07-23T10:34:37.838Z,100426.09
2023-07-23T10:35:55.761Z,100424.28
2023-07-23T10:37:23.846Z,100412.63
2023-07-23T10:38:30.312Z,100409.16
2023-07-23T10:39:45.249Z,100416.09
2023-07-23T10:40:48.901Z,100403.50
2023-07-23T10:41:56.655Z,100405.47
2023-07-23T10:43:13.789Z,100400.34
2023-07-23T10:44:44.384Z,100400.53
2023-07-23T10:46:05.971Z,100398.66
2023-07-23T10:47:34.960Z,100400.75
2023-07-23T10:48:50.209Z,100399.38
2023-07-23T10:50:14.048Z,100392.06
2023-07-23T10:51:24.934Z,100395.53
2023-07-23T10:52:31.067Z,100399.59
2023-07-23T10:53:33.018Z,100397.00
2023-07-23T10:54:34.851Z,100395.19
2023-07-23T10:55:51.735Z,100391.50
2023-07-23T10:56:53.677Z,100385.66
2023-07-23T10:57:55.480Z,100384.59
2023-07-23T10:59:11.208Z,100385.91
2023-07-23T11:00:24.968Z,100384.50
2023-07-23T11:01:29.546Z,100378.88
2023-07-23T11:02:32.192Z,100382.84
2023-07-23T11:03:34.224Z,100380.97
2023-07-23T11:04:39.994Z,100382.63
2023-07-23T11:05:43.568Z,100376.00
2023-07-23T11:07:07.634Z,100373.31
2023-07-23T11:08:27.952Z,100366.28
2023-07-23T11:09:34.703Z,100371.56
2023-07-23T11:10:59.875Z,100365.34
2023-07-23T11:12:09.541Z,100366.53
2023-07-23T11:13:11.681Z,100357.16
2023-07-23T11:14:28.999Z,100361.63
2023-07-23T11:15:31.512Z,100355.38
2023-07-23T11:16:36.989Z,100351.34
2023-07-23T11:17:40.671Z,100354.19
2023-07-23T11:18:44.111Z,100345.91
2023-07-23T11:19:48.516Z,100348.56
2023-07-23T11:20:54.137Z,100345.06
2023-07-23T11:22:06.441Z,100341.34
2023-07-23T11:23:08.253Z,100335.69
2023-07-23T11:24:10.066Z,100336.69
2023-07-23T11:25:17.013Z,100332.31
2023-07-23T11:26:18.936Z,100339.00
2023-07-23T11:27:21.964Z,100344.34
2023-07-23T11:28:24.705Z,100345.41
2023-07-23T11:29:27.436Z,100338.22
2023-07-23T11:30:32.869Z,100337.91
2023-07-23T11:31:35.948Z,100329.09
2023-07-23T11:32:38.573Z,100329.28
2023-07-23T11:33:40.761Z,100334.03
2023-07-23T11:34:42.788Z,100336.91
2023-07-23T11:35:45.022Z,100326.41
2023-07-23T11:36:53.177Z,100331.16
2023-07-23T11:37:54.950Z,100328.97
2023-07-23T11:38:58.276Z,100327.88
2023-07-23T11:40:01.389Z,100326.47
2023-07-23T11:41:03.875Z,100326.22
2023-07-23T11:42:18.044Z,100321.66
2023-07-23T11:43:20.240Z,100317.25
2023-07-23T11:44:23.196Z,100309.22
2023-07-23T11:45:25.445Z,100312.13
2023-07-23T11:46:28.007Z,100312.13
2023-07-23T11:47:29.852Z,100307.06
2023-07-23T11:48:32.205Z,100304.66
2023-07-23T11:49:34.141Z,100307.34
2023-07-23T11:50:35.984Z,100315.88
2023-07-23T11:51:39.692Z,100311.03
2023-07-23T11:52:41.976Z,100304.56
2023-07-23T11:53:43.719Z,100295.44
2023-07-23T11:54:45.766Z,100298.31
2023-07-23T11:55:47.613Z,100297.22
2023-07-23T11:56:49.416Z,100296.94
2023-07-23T11:57:56.610Z,100298.53
2023-07-23T11:59:07.396Z,100290.97
2023-07-23T12:00:10.625Z,100292.25
2023-07-23T12:01:12.706Z,100291.66
2023-07-23T12:02:14.569Z,100291.03
2023-07-23T12:03:16.634Z,100292.34
2023-07-23T12:04:18.476Z,100289.66
2023-07-23T12:05:20.822Z,100288.56